sensor_id;sensor_type;location;lat;lon;timestamp;temperature;humidity
6863;DHT22;3470;48.738;9.616;2022-10-31T00:01:59;10.20;99.90
6863;DHT22;3470;48.738;9.616;2022-10-31T00:04:25;10.20;99.90
6863;DHT22;3470;48.738;9.616;2022-10-31T00:06:50;10.10;99.90
6863;DHT22;3470;48.738;9.616;2022-10-31T00:09:16;10.10;99.90
6863;DHT22;3470;48.738;9.616;2022-10-31T00:11:42;10.10;99.90
6863;DHT22;3470;48.738;9.616;2022-10-31T00:14:07;10.10;99.90
6863;DHT22;3470;48.738;9.616;2022-10-31T00:16:33;10.10;99.90
6863;DHT22;3470;48.738;9.616;2022-10-31T00:19:01;10.10;99.90
6863;DHT22;3470;48.738;9.616;2022-10-31T00:21:29;10.20;99.90
6863;DHT22;3470;48.738;9.616;2022-10-31T00:23:54;10.20;99.90
6863;DHT22;3470;48.738;9.616;2022-10-31T00:26:20;10.20;99.90
6863;DHT22;3470;48.738;9.616;2022-10-31T00:28:46;10.20;99.90
6863;DHT22;3470;48.738;9.616;2022-10-31T00:31:12;10.20;99.90
6863;DHT22;3470;48.738;9.616;2022-10-31T00:33:39;10.20;99.90
6863;DHT22;3470;48.738;9.616;2022-10-31T00:36:06;10.20;99.90
6863;DHT22;3470;48.738;9.616;2022-10-31T00:38:32;10.20;99.90
6863;DHT22;3470;48.738;9.616;2022-10-31T00:40:58;10.10;99.90
6863;DHT22;3470;48.738;9.616;2022-10-31T00:43:24;10.10;99.90
6863;DHT22;3470;48.738;9.616;2022-10-31T00:45:50;10.10;99.90
6863;DHT22;3470;48.738;9.616;2022-10-31T00:48:16;10.10;99.90
6863;DHT22;3470;48.738;9.616;2022-10-31T00:50:42;10.10;99.90
6863;DHT22;3470;48.738;9.616;2022-10-31T00:53:08;10.00;99.90
6863;DHT22;3470;48.738;9.616;2022-10-31T00:55:33;10.00;99.90
6863;DHT22;3470;48.738;9.616;2022-10-31T00:57:59;9.90;99.90
6863;DHT22;3470;48.738;9.616;2022-10-31T01:00:25;9.90;99.90
6863;DHT22;3470;48.738;9.616;2022-10-31T01:02:51;9.90;99.90
6863;DHT22;3470;48.738;9.616;2022-10-31T01:05:16;9.90;99.90
6863;DHT22;3470;48.738;9.616;2022-10-31T01:07:42;9.90;99.90
6863;DHT22;3470;48.738;9.616;2022-10-31T01:10:08;9.90;99.90
6863;DHT22;3470;48.738;9.616;2022-10-31T01:12:38;9.90;99.90
6863;DHT22;3470;48.738;9.616;2022-10-31T01:15:05;9.80;99.90
6863;DHT22;3470;48.738;9.616;2022-10-31T01:17:30;9.80;99.90
6863;DHT22;3470;48.738;9.616;2022-10-31T01:19:56;9.80;99.90
6863;DHT22;3470;48.738;9.616;2022-10-31T01:22:21;9.80;99.90
6863;DHT22;3470;48.738;9.616;2022-10-31T01:24:47;9.80;99.90
6863;DHT22;3470;48.738;9.616;2022-10-31T01:27:12;9.80;99.90
6863;DHT22;3470;48.738;9.616;2022-10-31T01:29:38;9.80;99.90
6863;DHT22;3470;48.738;9.616;2022-10-31T01:32:04;9.80;99.90
6863;DHT22;3470;48.738;9.616;2022-10-31T01:34:29;9.80;99.90
6863;DHT22;3470;48.738;9.616;2022-10-31T01:36:55;9.80;99.90
6863;DHT22;3470;48.738;9.616;2022-10-31T01:39:20;9.80;99.90
6863;DHT22;3470;48.738;9.616;2022-10-31T01:41:49;9.80;99.90
6863;DHT22;3470;48.738;9.616;2022-10-31T01:46:58;9.80;99.90
6863;DHT22;3470;48.738;9.616;2022-10-31T01:49:34;9.90;99.90
6863;DHT22;3470;48.738;9.616;2022-10-31T01:52:09;9.90;99.90
6863;DHT22;3470;48.738;9.616;2022-10-31T01:54:40;9.80;99.90
6863;DHT22;3470;48.738;9.616;2022-10-31T01:57:09;9.70;99.90
6863;DHT22;3470;48.738;9.616;2022-10-31T01:59:40;9.70;99.90
6863;DHT22;3470;48.738;9.616;2022-10-31T02:02:07;9.60;99.90
6863;DHT22;3470;48.738;9.616;2022-10-31T02:04:33;9.60;99.90
6863;DHT22;3470;48.738;9.616;2022-10-31T02:07:07;9.60;99.90
6863;DHT22;3470;48.738;9.616;2022-10-31T02:09:36;9.60;99.90
6863;DHT22;3470;48.738;9.616;2022-10-31T02:12:03;9.60;99.90
6863;DHT22;3470;48.738;9.616;2022-10-31T02:14:30;9.60;99.90
6863;DHT22;3470;48.738;9.616;2022-10-31T02:16:57;9.70;99.90
6863;DHT22;3470;48.738;9.616;2022-10-31T02:22:27;9.80;99.90
6863;DHT22;3470;48.738;9.616;2022-10-31T02:25:07;9.80;99.90
6863;DHT22;3470;48.738;9.616;2022-10-31T02:30:18;9.80;99.90
6863;DHT22;3470;48.738;9.616;2022-10-31T02:35:24;9.60;99.90
6863;DHT22;3470;48.738;9.616;2022-10-31T02:40:23;9.60;99.90
6863;DHT22;3470;48.738;9.616;2022-10-31T02:43:20;9.60;99.90
6863;DHT22;3470;48.738;9.616;2022-10-31T02:46:14;9.50;99.90
6863;DHT22;3470;48.738;9.616;2022-10-31T02:48:45;9.60;99.90
6863;DHT22;3470;48.738;9.616;2022-10-31T02:51:12;9.60;99.90
6863;DHT22;3470;48.738;9.616;2022-10-31T02:53:38;9.60;99.90
6863;DHT22;3470;48.738;9.616;2022-10-31T02:56:15;9.50;99.90
6863;DHT22;3470;48.738;9.616;2022-10-31T13:31:50;22.30;86.50
6863;DHT22;3470;48.738;9.616;2022-10-31T13:34:35;21.80;87.40
6863;DHT22;3470;48.738;9.616;2022-10-31T13:45:20;20.20;90.60
6863;DHT22;3470;48.738;9.616;2022-10-31T13:50:40;19.50;92.20
6863;DHT22;3470;48.738;9.616;2022-10-31T13:53:36;19.50;92.10
6863;DHT22;3470;48.738;9.616;2022-10-31T13:58:34;19.80;92.20
6863;DHT22;3470;48.738;9.616;2022-10-31T14:01:19;19.80;91.90
6863;DHT22;3470;48.738;9.616;2022-10-31T14:03:47;20.30;91.40
6863;DHT22;3470;48.738;9.616;2022-10-31T14:06:14;20.90;90.80
6863;DHT22;3470;48.738;9.616;2022-10-31T14:08:48;21.50;90.10
6863;DHT22;3470;48.738;9.616;2022-10-31T14:11:24;22.70;89.00
6863;DHT22;3470;48.738;9.616;2022-10-31T14:13:52;23.60;84.70
6863;DHT22;3470;48.738;9.616;2022-10-31T14:16:22;24.70;81.40
6863;DHT22;3470;48.738;9.616;2022-10-31T14:18:57;24.70;81.80
6863;DHT22;3470;48.738;9.616;2022-10-31T14:23:50;23.50;84.60
6863;DHT22;3470;48.738;9.616;2022-10-31T14:28:58;22.90;86.30
6863;DHT22;3470;48.738;9.616;2022-10-31T14:31:39;22.80;86.60
6863;DHT22;3470;48.738;9.616;2022-10-31T14:48:39;26.20;76.90
6863;DHT22;3470;48.738;9.616;2022-10-31T14:51:22;26.00;76.30
6863;DHT22;3470;48.738;9.616;2022-10-31T14:53:55;26.00;76.70
6863;DHT22;3470;48.738;9.616;2022-10-31T14:56:28;26.10;76.70
6863;DHT22;3470;48.738;9.616;2022-10-31T14:58:57;25.70;77.30
6863;DHT22;3470;48.738;9.616;2022-10-31T15:01:30;25.50;78.10
6863;DHT22;3470;48.738;9.616;2022-10-31T15:04:18;25.50;78.50
6863;DHT22;3470;48.738;9.616;2022-10-31T15:06:47;25.00;79.10
6863;DHT22;3470;48.738;9.616;2022-10-31T15:09:25;23.80;81.60
6863;DHT22;3470;48.738;9.616;2022-10-31T15:11:52;23.10;84.30
6863;DHT22;3470;48.738;9.616;2022-10-31T15:14:31;22.60;85.70
6863;DHT22;3470;48.738;9.616;2022-10-31T15:16:58;22.20;87.30
6863;DHT22;3470;48.738;9.616;2022-10-31T15:19:29;22.30;87.30
6863;DHT22;3470;48.738;9.616;2022-10-31T15:21:56;22.20;87.60
6863;DHT22;3470;48.738;9.616;2022-10-31T15:24:28;21.60;88.70
6863;DHT22;3470;48.738;9.616;2022-10-31T15:26:55;21.30;90.20
6863;DHT22;3470;48.738;9.616;2022-10-31T15:29:23;20.50;91.10
6863;DHT22;3470;48.738;9.616;2022-10-31T15:32:00;20.00;92.10
6863;DHT22;3470;48.738;9.616;2022-10-31T15:34:38;19.40;93.40
6863;DHT22;3470;48.738;9.616;2022-10-31T15:37:04;18.90;94.50
6863;DHT22;3470;48.738;9.616;2022-10-31T15:39:30;18.50;95.30
6863;DHT22;3470;48.738;9.616;2022-10-31T15:41:57;18.20;96.20
6863;DHT22;3470;48.738;9.616;2022-10-31T15:44:28;17.90;96.90
6863;DHT22;3470;48.738;9.616;2022-10-31T15:47:00;17.80;97.70
6863;DHT22;3470;48.738;9.616;2022-10-31T15:49:38;17.60;98.20
6863;DHT22;3470;48.738;9.616;2022-10-31T15:52:11;17.40;98.60
6863;DHT22;3470;48.738;9.616;2022-10-31T15:54:50;17.10;98.90
6863;DHT22;3470;48.738;9.616;2022-10-31T15:57:17;16.90;99.20
6863;DHT22;3470;48.738;9.616;2022-10-31T15:59:46;16.80;99.40
6863;DHT22;3470;48.738;9.616;2022-10-31T16:02:14;16.60;99.80
6863;DHT22;3470;48.738;9.616;2022-10-31T16:04:55;16.50;99.90
6863;DHT22;3470;48.738;9.616;2022-10-31T16:07:22;16.30;99.90
6863;DHT22;3470;48.738;9.616;2022-10-31T16:09:59;16.10;99.90
6863;DHT22;3470;48.738;9.616;2022-10-31T16:12:35;16.00;99.90
6863;DHT22;3470;48.738;9.616;2022-10-31T16:15:02;15.90;99.90
6863;DHT22;3470;48.738;9.616;2022-10-31T16:17:28;15.70;99.90
6863;DHT22;3470;48.738;9.616;2022-10-31T16:20:03;15.60;99.90
6863;DHT22;3470;48.738;9.616;2022-10-31T16:22:37;15.40;99.90
6863;DHT22;3470;48.738;9.616;2022-10-31T16:25:57;15.30;99.90
6863;DHT22;3470;48.738;9.616;2022-10-31T16:28:18;15.10;99.90
6863;DHT22;3470;48.738;9.616;2022-10-31T16:30:45;15.00;99.90
6863;DHT22;3470;48.738;9.616;2022-10-31T16:33:46;14.80;99.90
6863;DHT22;3470;48.738;9.616;2022-10-31T16:38:55;14.40;99.90
6863;DHT22;3470;48.738;9.616;2022-10-31T16:41:21;14.30;99.90
6863;DHT22;3470;48.738;9.616;2022-10-31T16:43:48;14.20;99.90
6863;DHT22;3470;48.738;9.616;2022-10-31T16:46:27;14.00;99.90
6863;DHT22;3470;48.738;9.616;2022-10-31T16:48:53;13.90;99.90
6863;DHT22;3470;48.738;9.616;2022-10-31T16:51:19;13.80;99.90
6863;DHT22;3470;48.738;9.616;2022-10-31T16:53:44;13.70;99.90
6863;DHT22;3470;48.738;9.616;2022-10-31T16:56:28;13.60;99.90
6863;DHT22;3470;48.738;9.616;2022-10-31T16:58:55;13.50;99.90
6863;DHT22;3470;48.738;9.616;2022-10-31T17:01:21;13.40;99.90
6863;DHT22;3470;48.738;9.616;2022-10-31T17:03:46;13.40;99.90
6863;DHT22;3470;48.738;9.616;2022-10-31T17:06:13;13.30;99.90
6863;DHT22;3470;48.738;9.616;2022-10-31T17:08:39;13.30;99.90
6863;DHT22;3470;48.738;9.616;2022-10-31T17:11:04;13.20;99.90
6863;DHT22;3470;48.738;9.616;2022-10-31T17:13:32;13.10;99.90
6863;DHT22;3470;48.738;9.616;2022-10-31T17:15:59;13.00;99.90
6863;DHT22;3470;48.738;9.616;2022-10-31T17:18:26;13.00;99.90
6863;DHT22;3470;48.738;9.616;2022-10-31T17:20:56;12.90;99.90
6863;DHT22;3470;48.738;9.616;2022-10-31T17:23:23;12.90;99.90
6863;DHT22;3470;48.738;9.616;2022-10-31T17:25:49;12.90;99.90
6863;DHT22;3470;48.738;9.616;2022-10-31T17:28:15;12.90;99.90
6863;DHT22;3470;48.738;9.616;2022-10-31T17:30:41;12.90;99.90
6863;DHT22;3470;48.738;9.616;2022-10-31T17:33:16;12.90;99.90
6863;DHT22;3470;48.738;9.616;2022-10-31T17:35:43;12.90;99.90
6863;DHT22;3470;48.738;9.616;2022-10-31T17:38:11;12.80;99.90
6863;DHT22;3470;48.738;9.616;2022-10-31T17:40:38;12.80;99.90
6863;DHT22;3470;48.738;9.616;2022-10-31T17:43:05;12.70;99.90
6863;DHT22;3470;48.738;9.616;2022-10-31T17:45:31;12.50;99.90
6863;DHT22;3470;48.738;9.616;2022-10-31T17:47:57;12.40;99.90
6863;DHT22;3470;48.738;9.616;2022-10-31T17:50:24;12.40;99.90
6863;DHT22;3470;48.738;9.616;2022-10-31T17:52:50;12.40;99.90
6863;DHT22;3470;48.738;9.616;2022-10-31T17:55:16;12.30;99.90
6863;DHT22;3470;48.738;9.616;2022-10-31T17:57:42;12.30;99.90
6863;DHT22;3470;48.738;9.616;2022-10-31T18:00:16;12.30;99.90
6863;DHT22;3470;48.738;9.616;2022-10-31T18:02:42;12.50;99.90
6863;DHT22;3470;48.738;9.616;2022-10-31T18:05:08;12.60;99.90
6863;DHT22;3470;48.738;9.616;2022-10-31T18:07:34;12.80;99.90
6863;DHT22;3470;48.738;9.616;2022-10-31T18:09:59;12.90;99.90
6863;DHT22;3470;48.738;9.616;2022-10-31T18:12:26;13.00;99.90
6863;DHT22;3470;48.738;9.616;2022-10-31T18:14:52;13.10;99.90
6863;DHT22;3470;48.738;9.616;2022-10-31T18:17:18;13.00;99.90
6863;DHT22;3470;48.738;9.616;2022-10-31T18:19:44;13.10;99.90
6863;DHT22;3470;48.738;9.616;2022-10-31T18:22:10;13.10;99.90
6863;DHT22;3470;48.738;9.616;2022-10-31T18:24:36;13.20;99.90
6863;DHT22;3470;48.738;9.616;2022-10-31T18:27:01;13.10;99.90
6863;DHT22;3470;48.738;9.616;2022-10-31T18:29:27;13.00;99.90
6863;DHT22;3470;48.738;9.616;2022-10-31T18:31:53;12.90;99.90
6863;DHT22;3470;48.738;9.616;2022-10-31T18:34:18;12.80;99.90
6863;DHT22;3470;48.738;9.616;2022-10-31T18:36:44;12.80;99.90
6863;DHT22;3470;48.738;9.616;2022-10-31T18:39:10;12.70;99.90
6863;DHT22;3470;48.738;9.616;2022-10-31T18:41:37;12.60;99.90
6863;DHT22;3470;48.738;9.616;2022-10-31T18:44:06;12.50;99.90
6863;DHT22;3470;48.738;9.616;2022-10-31T18:46:33;12.50;99.90
6863;DHT22;3470;48.738;9.616;2022-10-31T18:49:00;12.60;99.90
6863;DHT22;3470;48.738;9.616;2022-10-31T18:51:25;12.60;99.90
6863;DHT22;3470;48.738;9.616;2022-10-31T18:53:53;12.70;99.90
6863;DHT22;3470;48.738;9.616;2022-10-31T18:56:19;12.80;99.90
6863;DHT22;3470;48.738;9.616;2022-10-31T18:58:45;12.80;99.90
6863;DHT22;3470;48.738;9.616;2022-10-31T19:01:11;12.90;99.90
6863;DHT22;3470;48.738;9.616;2022-10-31T19:03:38;12.90;99.90
6863;DHT22;3470;48.738;9.616;2022-10-31T19:06:04;12.90;99.90
6863;DHT22;3470;48.738;9.616;2022-10-31T19:08:30;12.90;99.90
6863;DHT22;3470;48.738;9.616;2022-10-31T19:11:06;13.10;99.90
6863;DHT22;3470;48.738;9.616;2022-10-31T19:13:33;13.20;99.90
6863;DHT22;3470;48.738;9.616;2022-10-31T19:16:10;13.30;99.90
6863;DHT22;3470;48.738;9.616;2022-10-31T19:18:37;13.30;99.90
6863;DHT22;3470;48.738;9.616;2022-10-31T19:21:14;13.30;99.90
6863;DHT22;3470;48.738;9.616;2022-10-31T19:23:40;13.20;99.90
6863;DHT22;3470;48.738;9.616;2022-10-31T19:26:07;13.30;99.90
6863;DHT22;3470;48.738;9.616;2022-10-31T19:28:34;13.20;99.90
6863;DHT22;3470;48.738;9.616;2022-10-31T19:31:00;13.20;99.90
6863;DHT22;3470;48.738;9.616;2022-10-31T19:33:26;13.40;99.90
6863;DHT22;3470;48.738;9.616;2022-10-31T19:36:15;13.40;99.90
6863;DHT22;3470;48.738;9.616;2022-10-31T19:38:44;13.40;99.90
6863;DHT22;3470;48.738;9.616;2022-10-31T19:41:16;13.40;99.90
6863;DHT22;3470;48.738;9.616;2022-10-31T19:43:42;13.50;99.90
6863;DHT22;3470;48.738;9.616;2022-10-31T19:46:10;13.50;99.90
6863;DHT22;3470;48.738;9.616;2022-10-31T19:48:37;13.60;99.90
6863;DHT22;3470;48.738;9.616;2022-10-31T19:51:06;13.60;99.90
6863;DHT22;3470;48.738;9.616;2022-10-31T19:53:32;13.60;99.90
6863;DHT22;3470;48.738;9.616;2022-10-31T19:55:58;13.60;99.90
6863;DHT22;3470;48.738;9.616;2022-10-31T19:58:24;13.60;99.90
6863;DHT22;3470;48.738;9.616;2022-10-31T20:00:50;13.60;99.90
6863;DHT22;3470;48.738;9.616;2022-10-31T20:03:15;13.60;99.90
6863;DHT22;3470;48.738;9.616;2022-10-31T20:05:41;13.50;99.90
6863;DHT22;3470;48.738;9.616;2022-10-31T20:08:14;13.60;99.90
6863;DHT22;3470;48.738;9.616;2022-10-31T20:10:40;13.60;99.90
6863;DHT22;3470;48.738;9.616;2022-10-31T20:13:06;13.60;99.90
6863;DHT22;3470;48.738;9.616;2022-10-31T20:15:33;13.60;99.90
6863;DHT22;3470;48.738;9.616;2022-10-31T20:17:58;13.60;99.90
6863;DHT22;3470;48.738;9.616;2022-10-31T20:20:24;13.50;99.90
6863;DHT22;3470;48.738;9.616;2022-10-31T20:22:49;13.40;99.90
6863;DHT22;3470;48.738;9.616;2022-10-31T20:25:15;13.30;99.90
6863;DHT22;3470;48.738;9.616;2022-10-31T20:27:41;13.30;99.90
6863;DHT22;3470;48.738;9.616;2022-10-31T20:30:07;13.10;99.90
6863;DHT22;3470;48.738;9.616;2022-10-31T20:32:32;13.10;99.90
6863;DHT22;3470;48.738;9.616;2022-10-31T20:34:58;13.00;99.90
6863;DHT22;3470;48.738;9.616;2022-10-31T20:37:24;13.00;99.90
6863;DHT22;3470;48.738;9.616;2022-10-31T20:39:49;12.80;99.90
6863;DHT22;3470;48.738;9.616;2022-10-31T20:42:15;12.80;99.90
6863;DHT22;3470;48.738;9.616;2022-10-31T20:44:41;12.80;99.90
6863;DHT22;3470;48.738;9.616;2022-10-31T20:47:06;12.80;99.90
6863;DHT22;3470;48.738;9.616;2022-10-31T20:49:32;12.70;99.90
6863;DHT22;3470;48.738;9.616;2022-10-31T20:51:57;12.50;99.90
6863;DHT22;3470;48.738;9.616;2022-10-31T20:54:23;12.40;99.90
6863;DHT22;3470;48.738;9.616;2022-10-31T20:56:49;12.40;99.90
6863;DHT22;3470;48.738;9.616;2022-10-31T20:59:14;12.30;99.90
6863;DHT22;3470;48.738;9.616;2022-10-31T21:01:42;12.30;99.90
6863;DHT22;3470;48.738;9.616;2022-10-31T21:04:07;12.20;99.90
6863;DHT22;3470;48.738;9.616;2022-10-31T21:06:36;12.30;99.90
6863;DHT22;3470;48.738;9.616;2022-10-31T21:09:03;12.40;99.90
6863;DHT22;3470;48.738;9.616;2022-10-31T21:11:29;12.50;99.90
6863;DHT22;3470;48.738;9.616;2022-10-31T21:13:55;12.60;99.90
6863;DHT22;3470;48.738;9.616;2022-10-31T21:16:26;12.50;99.90
6863;DHT22;3470;48.738;9.616;2022-10-31T21:18:52;12.40;99.90
6863;DHT22;3470;48.738;9.616;2022-10-31T21:21:26;12.20;99.90
6863;DHT22;3470;48.738;9.616;2022-10-31T21:23:57;11.90;99.90
6863;DHT22;3470;48.738;9.616;2022-10-31T21:26:25;11.70;99.90
6863;DHT22;3470;48.738;9.616;2022-10-31T21:28:53;11.60;99.90
6863;DHT22;3470;48.738;9.616;2022-10-31T21:31:19;11.50;99.90
6863;DHT22;3470;48.738;9.616;2022-10-31T21:33:45;11.30;99.90
6863;DHT22;3470;48.738;9.616;2022-10-31T21:36:12;11.20;99.90
6863;DHT22;3470;48.738;9.616;2022-10-31T21:38:38;11.10;99.90
6863;DHT22;3470;48.738;9.616;2022-10-31T21:41:06;11.10;99.90
6863;DHT22;3470;48.738;9.616;2022-10-31T21:43:34;11.00;99.90
6863;DHT22;3470;48.738;9.616;2022-10-31T21:46:20;10.90;99.90
6863;DHT22;3470;48.738;9.616;2022-10-31T21:48:46;10.90;99.90
6863;DHT22;3470;48.738;9.616;2022-10-31T21:51:34;10.80;99.90
6863;DHT22;3470;48.738;9.616;2022-10-31T21:53:59;10.70;99.90
6863;DHT22;3470;48.738;9.616;2022-10-31T21:56:43;10.70;99.90
6863;DHT22;3470;48.738;9.616;2022-10-31T21:59:09;10.70;99.90
6863;DHT22;3470;48.738;9.616;2022-10-31T22:01:35;10.80;99.90
6863;DHT22;3470;48.738;9.616;2022-10-31T22:04:02;10.80;99.90
6863;DHT22;3470;48.738;9.616;2022-10-31T22:06:28;10.80;99.90
6863;DHT22;3470;48.738;9.616;2022-10-31T22:08:58;10.80;99.90
6863;DHT22;3470;48.738;9.616;2022-10-31T22:11:25;10.80;99.90
6863;DHT22;3470;48.738;9.616;2022-10-31T22:13:52;10.80;99.90
6863;DHT22;3470;48.738;9.616;2022-10-31T22:16:19;10.70;99.90
6863;DHT22;3470;48.738;9.616;2022-10-31T22:18:46;10.60;99.90
6863;DHT22;3470;48.738;9.616;2022-10-31T22:21:14;10.70;99.90
6863;DHT22;3470;48.738;9.616;2022-10-31T22:23:40;10.60;99.90
6863;DHT22;3470;48.738;9.616;2022-10-31T22:26:15;10.60;99.90
6863;DHT22;3470;48.738;9.616;2022-10-31T22:28:45;10.70;99.90
6863;DHT22;3470;48.738;9.616;2022-10-31T22:31:16;10.70;99.90
6863;DHT22;3470;48.738;9.616;2022-10-31T22:33:43;10.70;99.90
6863;DHT22;3470;48.738;9.616;2022-10-31T22:36:11;10.70;99.90
6863;DHT22;3470;48.738;9.616;2022-10-31T22:38:39;10.70;99.90
6863;DHT22;3470;48.738;9.616;2022-10-31T22:41:10;10.60;99.90
6863;DHT22;3470;48.738;9.616;2022-10-31T22:43:36;10.70;99.90
6863;DHT22;3470;48.738;9.616;2022-10-31T22:46:02;10.60;99.90
6863;DHT22;3470;48.738;9.616;2022-10-31T22:48:35;10.50;99.90
6863;DHT22;3470;48.738;9.616;2022-10-31T22:51:18;10.60;99.90
6863;DHT22;3470;48.738;9.616;2022-10-31T22:53:44;10.60;99.90
6863;DHT22;3470;48.738;9.616;2022-10-31T22:56:12;10.70;99.90
6863;DHT22;3470;48.738;9.616;2022-10-31T22:58:37;10.70;99.90
6863;DHT22;3470;48.738;9.616;2022-10-31T23:01:08;10.60;99.90
6863;DHT22;3470;48.738;9.616;2022-10-31T23:03:34;10.60;99.90
6863;DHT22;3470;48.738;9.616;2022-10-31T23:06:01;10.60;99.90
6863;DHT22;3470;48.738;9.616;2022-10-31T23:08:28;10.70;99.90
6863;DHT22;3470;48.738;9.616;2022-10-31T23:10:54;10.70;99.90
6863;DHT22;3470;48.738;9.616;2022-10-31T23:13:20;10.80;99.90
6863;DHT22;3470;48.738;9.616;2022-10-31T23:16:08;10.80;99.90
6863;DHT22;3470;48.738;9.616;2022-10-31T23:18:34;10.80;99.90
6863;DHT22;3470;48.738;9.616;2022-10-31T23:21:01;10.90;99.90
6863;DHT22;3470;48.738;9.616;2022-10-31T23:23:31;11.10;99.90
6863;DHT22;3470;48.738;9.616;2022-10-31T23:25:57;11.20;99.90
6863;DHT22;3470;48.738;9.616;2022-10-31T23:28:41;11.40;99.90
6863;DHT22;3470;48.738;9.616;2022-10-31T23:31:06;11.50;99.90
6863;DHT22;3470;48.738;9.616;2022-10-31T23:33:32;11.50;99.90
6863;DHT22;3470;48.738;9.616;2022-10-31T23:35:58;11.50;99.90
6863;DHT22;3470;48.738;9.616;2022-10-31T23:38:23;11.60;99.90
6863;DHT22;3470;48.738;9.616;2022-10-31T23:40:49;11.60;99.90
6863;DHT22;3470;48.738;9.616;2022-10-31T23:43:14;11.50;99.90
6863;DHT22;3470;48.738;9.616;2022-10-31T23:45:43;11.30;99.90
6863;DHT22;3470;48.738;9.616;2022-10-31T23:48:09;11.00;99.90
6863;DHT22;3470;48.738;9.616;2022-10-31T23:50:36;10.80;99.90
6863;DHT22;3470;48.738;9.616;2022-10-31T23:53:01;10.80;99.90
6863;DHT22;3470;48.738;9.616;2022-10-31T23:55:27;10.70;99.90
6863;DHT22;3470;48.738;9.616;2022-10-31T23:57:53;10.60;99.90
